Weather History for Omaha Millard, NE

Change the Weather History Date:

Saturday, March 16, 2013

  Actual Average (KOMA) Record (KOMA)
Temperature  
Mean Temperature 34 °F 40 °F  
Max Temperature 40 °F 51 °F 81 °F (1966)
Min Temperature 29 °F 28 °F -6 °F (1900)
Degree Days  
Heating Degree Days 30 25  
Month to date heating degree days 458  
Since 1 July heating degree days 5256  
Cooling Degree Days 0 0  
Month to date cooling degree days 0  
Year to date cooling degree days 0  
Moisture  
Dew Point 31 °F    
Average Humidity 93    
Maximum Humidity 100    
Minimum Humidity 80    
Precipitation  
Precipitation 0.00 in 0.06 in 0.78 in (1946)
Month to date precipitation 0.84  
Year to date precipitation 2.41  
Snow  
Snow 0.00 in 0.20 in - ()
Month to date snowfall 2.6  
Since 1 July snowfall 23.8  
Snow Depth -    
Sea Level Pressure  
Sea Level Pressure 30.06 in    
Wind  
Wind Speed 9 mph (North)    
Max Wind Speed 17 mph    
Max Gust Speed 24 mph    
Visibility 9 miles    
Events      
T = Trace of Precipitation, MM = Missing Value Source: NWS Daily Summary

Daily Weather History Graph

Daily Weather History Graph

Search for Another Location

Airport:

Trip Planner

Search our weather history database for the weather conditions in past years. The results will help you decide how hot, cold, wet, or windy it might be!

Date:

Astronomy

Mar. 16, 2013 Rise Set
Actual Time 7:34 AM CDT 7:32 PM CDT
Civil Twilight 7:06 AM CDT 8:00 PM CDT
Nautical Twilight 6:34 AM CDT 8:32 PM CDT
Astronomical Twilight 6:02 AM CDT 9:04 PM CDT
Moon 10:01 AM CDT (3/16) No Moon Set
Length of Visible Light 12h 53m
Length of Day
11h 58m
Waxing Crescent, 23% of the Moon is Illuminated
Mar 16
Waxing Crescent
Mar 19
First Quarter
Mar 27
Full
Apr 2
Last Quarter
Apr 10
New

Hourly Weather History & Observations

Time (CDT) Temp. Windchill Dew Point Humidity Pressure Visibility Wind Dir Wind Speed Gust Speed Precip Events Conditions
12:15 AM 40.3 °F 34.9 °F 40.3 °F 100% 29.86 in 5.0 mi NNW 8.1 mph - N/A   Overcast
12:35 AM 40.3 °F 35.5 °F 40.3 °F 100% 29.86 in 5.0 mi North 6.9 mph - N/A   Overcast
12:55 AM 40.3 °F 35.5 °F 40.3 °F 100% 29.86 in 5.0 mi NNW 6.9 mph - N/A   Overcast
1:15 AM 40.1 °F 35.3 °F 40.1 °F 100% 29.86 in 5.0 mi North 6.9 mph - N/A   Overcast
1:35 AM 40.1 °F 36.1 °F 40.1 °F 100% 29.87 in 5.0 mi NNW 5.8 mph - N/A   Overcast
1:55 AM 39.7 °F 33.2 °F 39.7 °F 100% 29.88 in 5.0 mi North 10.4 mph 17.3 mph N/A   Overcast
2:15 AM 39.4 °F 31.1 °F 39.4 °F 100% 29.89 in 5.0 mi NW 15.0 mph 21.9 mph N/A   Overcast
2:35 AM 37.8 °F 30.2 °F 37.8 °F 100% 29.90 in 4.0 mi NNW 11.5 mph 18.4 mph N/A   Overcast
2:55 AM 36.1 °F 27.3 °F 36.1 °F 100% 29.91 in 5.0 mi NNW 13.8 mph 24.2 mph N/A   Overcast
3:15 AM 35.6 °F 27.1 °F 35.6 °F 100% 29.93 in 7.0 mi NNW 12.7 mph 21.9 mph N/A   Overcast
3:35 AM 35.2 °F 26.6 °F 35.2 °F 100% 29.94 in 10.0 mi NW 12.7 mph 19.6 mph N/A   Overcast
3:55 AM 34.7 °F 25.9 °F 34.7 °F 100% 29.94 in 7.0 mi NW 12.7 mph 24.2 mph N/A   Overcast
4:15 AM 34.7 °F 25.1 °F 34.7 °F 100% 29.95 in 10.0 mi NNW 15.0 mph 23.0 mph N/A   Overcast
4:35 AM 34.3 °F 25.0 °F 34.3 °F 100% 29.96 in 10.0 mi NW 13.8 mph 21.9 mph N/A   Overcast
4:55 AM 34.2 °F 26.8 °F 34.2 °F 100% 29.97 in 10.0 mi North 9.2 mph 19.6 mph N/A   Overcast
5:15 AM 33.8 °F 24.8 °F 33.8 °F 100% 29.98 in 10.0 mi NNW 12.7 mph 21.9 mph N/A   Overcast
5:35 AM 33.8 °F 26.4 °F 33.8 °F 100% 29.98 in 10.0 mi North 9.2 mph 24.2 mph N/A   Overcast
5:55 AM 33.8 °F 26.4 °F 33.4 °F 99% 29.99 in 10.0 mi NNW 9.2 mph 19.6 mph N/A   Overcast
6:15 AM 33.8 °F 27.0 °F 33.4 °F 99% 30.01 in 10.0 mi NNW 8.1 mph - N/A   Overcast
6:35 AM 33.4 °F 24.8 °F 32.9 °F 98% 30.04 in 10.0 mi North 11.5 mph 18.4 mph N/A   Overcast
6:55 AM 32.9 °F 23.2 °F 32.2 °F 97% 30.05 in 10.0 mi North 13.8 mph 19.6 mph N/A   Overcast
7:15 AM 32.0 °F 26.4 °F 31.5 °F 98% 30.05 in 10.0 mi North 5.8 mph 17.3 mph N/A   Overcast
7:35 AM 31.5 °F 22.3 °F 31.5 °F 100% 30.06 in 10.0 mi NNW 11.5 mph 18.4 mph N/A   Overcast
7:55 AM 31.1 °F 23.1 °F 31.1 °F 100% 30.07 in 10.0 mi NNW 9.2 mph 19.6 mph N/A   Overcast
8:15 AM 30.9 °F 22.2 °F 30.9 °F 100% 30.09 in 10.0 mi NNW 10.4 mph 21.9 mph N/A   Overcast
8:35 AM 30.4 °F 21.0 °F 30.4 °F 100% 30.08 in 10.0 mi North 11.5 mph 17.3 mph N/A   Overcast
8:55 AM 29.8 °F 19.3 °F 29.8 °F 100% 30.08 in 10.0 mi NNW 13.8 mph 21.9 mph N/A   Overcast
9:15 AM 29.3 °F 19.6 °F 29.3 °F 100% 30.08 in 10.0 mi NNW 11.5 mph 19.6 mph N/A   Overcast
9:35 AM 29.5 °F 18.4 °F 29.5 °F 100% 30.09 in 10.0 mi North 15.0 mph 20.7 mph N/A   Overcast
9:55 AM 29.7 °F 17.8 °F 29.5 °F 99% 30.10 in 10.0 mi North 17.3 mph 23.0 mph N/A   Overcast
10:15 AM 29.8 °F 21.5 °F 29.5 °F 99% 30.09 in 10.0 mi North 9.2 mph 18.4 mph N/A   Overcast
10:35 AM 30.0 °F 20.0 °F 29.3 °F 97% 30.10 in 10.0 mi North 12.7 mph 19.6 mph N/A   Overcast
10:55 AM 30.0 °F 21.1 °F 29.3 °F 97% 30.09 in 10.0 mi North 10.4 mph 21.9 mph N/A   Overcast
11:15 AM 30.6 °F 21.8 °F 28.8 °F 93% 30.10 in 10.0 mi North 10.4 mph 19.6 mph N/A   Overcast
11:35 AM 30.7 °F 22.6 °F 28.8 °F 92% 30.11 in 10.0 mi North 9.2 mph 17.3 mph N/A   Overcast
11:55 AM 31.1 °F 23.7 °F 28.9 °F 92% 30.12 in 10.0 mi North 8.1 mph 17.3 mph N/A   Overcast
12:15 PM 31.1 °F 23.1 °F 29.1 °F 92% 30.13 in 10.0 mi North 9.2 mph 20.7 mph N/A   Overcast
12:35 PM 31.3 °F 23.3 °F 28.9 °F 91% 30.13 in 10.0 mi NNE 9.2 mph 17.3 mph N/A   Overcast
12:55 PM 32.0 °F 25.6 °F 29.1 °F 89% 30.13 in 10.0 mi North 6.9 mph - N/A   Overcast
1:15 PM 32.0 °F 24.2 °F 29.8 °F 92% 30.13 in 10.0 mi North 9.2 mph - N/A   Overcast
1:55 PM 32.0 °F 26.4 °F 29.3 °F 90% 30.13 in 10.0 mi NNW 5.8 mph - N/A   Overcast
2:15 PM 32.0 °F 27.5 °F 29.5 °F 90% 30.13 in 10.0 mi North 4.6 mph - N/A   Overcast
2:35 PM 32.4 °F 27.9 °F 30.0 °F 91% 30.11 in 10.0 mi North 4.6 mph - N/A   Overcast
2:55 PM 32.4 °F 26.9 °F 29.8 °F 90% 30.11 in 10.0 mi North 5.8 mph - N/A   Overcast
3:15 PM 32.7 °F 26.4 °F 29.5 °F 88% 30.09 in 10.0 mi North 6.9 mph - N/A   Overcast
3:35 PM 32.9 °F 25.9 °F 29.8 °F 88% 30.10 in 10.0 mi NNE 8.1 mph - N/A   Overcast
3:55 PM 32.9 °F 25.9 °F 29.7 °F 88% 30.09 in 10.0 mi North 8.1 mph - N/A   Overcast
4:15 PM 32.9 °F 28.5 °F 29.5 °F 87% 30.09 in 10.0 mi NNE 4.6 mph - N/A   Overcast
4:35 PM 32.9 °F 27.5 °F 29.1 °F 86% 30.09 in 10.0 mi North 5.8 mph - N/A   Overcast
4:55 PM 33.4 °F 30.4 °F 29.7 °F 86% 30.09 in 10.0 mi North 3.5 mph - N/A   Overcast
5:15 PM 33.8 °F 29.6 °F 28.6 °F 81% 30.09 in 10.0 mi NNE 4.6 mph - N/A   Overcast
5:35 PM 34.2 °F - 28.6 °F 80% 30.11 in 10.0 mi Calm Calm - N/A   Mostly Cloudy
5:55 PM 33.8 °F 29.6 °F 29.1 °F 83% 30.10 in 10.0 mi NE 4.6 mph - N/A   Mostly Cloudy
6:15 PM 33.8 °F 29.6 °F 28.6 °F 81% 30.10 in 10.0 mi NE 4.6 mph - N/A   Overcast
6:35 PM 33.1 °F 28.7 °F 28.4 °F 83% 30.10 in 10.0 mi NE 4.6 mph - N/A   Overcast
6:55 PM 32.9 °F 29.8 °F 28.9 °F 85% 30.11 in 10.0 mi NE 3.5 mph - N/A   Mostly Cloudy
7:15 PM 32.5 °F 27.1 °F 28.2 °F 84% 30.11 in 10.0 mi NE 5.8 mph - N/A   Mostly Cloudy
7:35 PM 32.4 °F 26.9 °F 29.1 °F 88% 30.12 in 10.0 mi ENE 5.8 mph - N/A   Overcast
7:55 PM 32.2 °F 27.7 °F 29.1 °F 88% 30.13 in 10.0 mi NNE 4.6 mph - N/A   Overcast
8:15 PM 32.0 °F 27.5 °F 28.6 °F 87% 30.13 in 10.0 mi NNE 4.6 mph - N/A   Overcast
8:35 PM 32.0 °F 26.4 °F 28.4 °F 87% 30.15 in 10.0 mi NNE 5.8 mph - N/A   Overcast
8:55 PM 32.0 °F 27.5 °F 28.4 °F 87% 30.16 in 10.0 mi NNE 4.6 mph - N/A   Overcast
9:15 PM 32.0 °F 25.6 °F 28.4 °F 87% 30.17 in 10.0 mi NNE 6.9 mph - N/A   Overcast
9:35 PM 32.0 °F 26.4 °F 28.4 °F 87% 30.17 in 10.0 mi North 5.8 mph - N/A   Overcast
9:55 PM 31.6 °F 26.0 °F 28.0 °F 87% 30.18 in 10.0 mi North 5.8 mph - N/A   Overcast
10:15 PM 31.1 °F 25.4 °F 27.7 °F 87% 30.18 in 10.0 mi NNE 5.8 mph - N/A   Overcast
10:35 PM 31.1 °F 26.4 °F 27.7 °F 87% 30.18 in 10.0 mi NNE 4.6 mph - N/A   Overcast
10:55 PM 31.1 °F 25.4 °F 27.9 °F 88% 30.18 in 10.0 mi NNE 5.8 mph - N/A   Overcast
11:15 PM 30.9 °F 27.5 °F 27.9 °F 88% 30.18 in 10.0 mi NNE 3.5 mph - N/A   Overcast
11:35 PM 30.7 °F 27.3 °F 27.5 °F 88% 30.18 in 10.0 mi NE 3.5 mph - N/A   Overcast
11:55 PM 30.6 °F 23.8 °F 27.5 °F 88% 30.16 in 10.0 mi ENE 6.9 mph - N/A   Overcast